sensor_id;sensor_type;location;lat;lon;timestamp;P1;durP1;ratioP1;P2;durP2;ratioP2
23743;SDS011;12052;53.478;10.182;2023-08-24T00:02:00;7.82;;;2.80;;
23743;SDS011;12052;53.478;10.182;2023-08-24T00:04:27;8.52;;;3.33;;
23743;SDS011;12052;53.478;10.182;2023-08-24T00:06:53;8.40;;;3.10;;
23743;SDS011;12052;53.478;10.182;2023-08-24T00:09:18;4.75;;;2.88;;
23743;SDS011;12052;53.478;10.182;2023-08-24T00:11:44;6.07;;;3.40;;
23743;SDS011;12052;53.478;10.182;2023-08-24T00:14:10;8.13;;;2.85;;
23743;SDS011;12052;53.478;10.182;2023-08-24T00:16:36;7.70;;;3.40;;
23743;SDS011;12052;53.478;10.182;2023-08-24T00:19:02;5.63;;;2.63;;
23743;SDS011;12052;53.478;10.182;2023-08-24T00:21:28;4.20;;;2.97;;
23743;SDS011;12052;53.478;10.182;2023-08-24T00:23:53;6.07;;;2.35;;
23743;SDS011;12052;53.478;10.182;2023-08-24T00:26:19;5.25;;;3.00;;
23743;SDS011;12052;53.478;10.182;2023-08-24T00:28:45;7.88;;;2.70;;
23743;SDS011;12052;53.478;10.182;2023-08-24T00:31:11;5.95;;;2.20;;
23743;SDS011;12052;53.478;10.182;2023-08-24T00:33:37;6.32;;;2.70;;
23743;SDS011;12052;53.478;10.182;2023-08-24T00:36:04;5.72;;;2.72;;
23743;SDS011;12052;53.478;10.182;2023-08-24T00:38:30;2.75;;;2.08;;
23743;SDS011;12052;53.478;10.182;2023-08-24T00:40:56;2.55;;;1.67;;
23743;SDS011;12052;53.478;10.182;2023-08-24T00:43:23;6.28;;;2.15;;
23743;SDS011;12052;53.478;10.182;2023-08-24T00:45:53;2.47;;;1.80;;
23743;SDS011;12052;53.478;10.182;2023-08-24T00:48:21;3.47;;;2.05;;
23743;SDS011;12052;53.478;10.182;2023-08-24T00:50:51;5.88;;;1.90;;
23743;SDS011;12052;53.478;10.182;2023-08-24T00:53:18;2.92;;;1.55;;
23743;SDS011;12052;53.478;10.182;2023-08-24T00:55:44;2.03;;;1.77;;
23743;SDS011;12052;53.478;10.182;2023-08-24T00:58:11;4.97;;;2.00;;
23743;SDS011;12052;53.478;10.182;2023-08-24T01:00:38;3.22;;;1.85;;
23743;SDS011;12052;53.478;10.182;2023-08-24T01:03:03;5.57;;;2.03;;
23743;SDS011;12052;53.478;10.182;2023-08-24T01:05:29;5.43;;;2.05;;
23743;SDS011;12052;53.478;10.182;2023-08-24T01:07:55;5.60;;;2.13;;
23743;SDS011;12052;53.478;10.182;2023-08-24T01:10:20;3.30;;;1.90;;
23743;SDS011;12052;53.478;10.182;2023-08-24T01:12:50;5.03;;;1.80;;
23743;SDS011;12052;53.478;10.182;2023-08-24T01:15:33;4.55;;;1.77;;
23743;SDS011;12052;53.478;10.182;2023-08-24T01:18:16;6.85;;;1.65;;
23743;SDS011;12052;53.478;10.182;2023-08-24T01:20:45;2.17;;;1.58;;
23743;SDS011;12052;53.478;10.182;2023-08-24T01:25:53;6.38;;;1.85;;
23743;SDS011;12052;53.478;10.182;2023-08-24T01:28:39;3.33;;;1.60;;
23743;SDS011;12052;53.478;10.182;2023-08-24T01:31:06;6.10;;;1.50;;
23743;SDS011;12052;53.478;10.182;2023-08-24T01:33:32;4.65;;;1.60;;
23743;SDS011;12052;53.478;10.182;2023-08-24T01:35:58;3.63;;;2.08;;
23743;SDS011;12052;53.478;10.182;2023-08-24T01:38:24;3.60;;;2.03;;
23743;SDS011;12052;53.478;10.182;2023-08-24T01:43:30;4.25;;;1.50;;
23743;SDS011;12052;53.478;10.182;2023-08-24T01:45:59;8.70;;;2.25;;
23743;SDS011;12052;53.478;10.182;2023-08-24T01:48:28;4.05;;;1.85;;
23743;SDS011;12052;53.478;10.182;2023-08-24T01:50:54;4.03;;;1.77;;
23743;SDS011;12052;53.478;10.182;2023-08-24T01:53:21;2.08;;;1.70;;
23743;SDS011;12052;53.478;10.182;2023-08-24T01:55:47;3.42;;;2.45;;
23743;SDS011;12052;53.478;10.182;2023-08-24T01:58:13;6.50;;;2.30;;
23743;SDS011;12052;53.478;10.182;2023-08-24T02:00:38;3.65;;;1.88;;
23743;SDS011;12052;53.478;10.182;2023-08-24T02:03:04;3.83;;;1.77;;
23743;SDS011;12052;53.478;10.182;2023-08-24T02:05:29;3.80;;;2.05;;
23743;SDS011;12052;53.478;10.182;2023-08-24T02:07:55;5.47;;;2.03;;
23743;SDS011;12052;53.478;10.182;2023-08-24T02:10:22;3.17;;;1.80;;
23743;SDS011;12052;53.478;10.182;2023-08-24T02:12:48;5.53;;;2.17;;
23743;SDS011;12052;53.478;10.182;2023-08-24T02:15:13;3.90;;;2.20;;
23743;SDS011;12052;53.478;10.182;2023-08-24T02:17:39;3.33;;;1.65;;
23743;SDS011;12052;53.478;10.182;2023-08-24T02:20:05;2.72;;;1.48;;
23743;SDS011;12052;53.478;10.182;2023-08-24T02:22:33;9.85;;;2.20;;
23743;SDS011;12052;53.478;10.182;2023-08-24T02:24:59;1.92;;;1.70;;
23743;SDS011;12052;53.478;10.182;2023-08-24T02:27:26;7.35;;;2.00;;
23743;SDS011;12052;53.478;10.182;2023-08-24T02:29:51;2.17;;;1.63;;
23743;SDS011;12052;53.478;10.182;2023-08-24T02:32:17;8.65;;;2.30;;
23743;SDS011;12052;53.478;10.182;2023-08-24T02:34:42;3.45;;;2.00;;
23743;SDS011;12052;53.478;10.182;2023-08-24T02:37:08;3.67;;;2.15;;
23743;SDS011;12052;53.478;10.182;2023-08-24T02:39:34;2.53;;;2.05;;
23743;SDS011;12052;53.478;10.182;2023-08-24T02:42:00;2.67;;;1.70;;
23743;SDS011;12052;53.478;10.182;2023-08-24T02:44:26;5.22;;;1.75;;
23743;SDS011;12052;53.478;10.182;2023-08-24T02:46:53;5.40;;;1.67;;
23743;SDS011;12052;53.478;10.182;2023-08-24T02:49:19;6.10;;;2.38;;
23743;SDS011;12052;53.478;10.182;2023-08-24T02:51:45;4.78;;;2.38;;
23743;SDS011;12052;53.478;10.182;2023-08-24T02:54:11;5.07;;;2.13;;
23743;SDS011;12052;53.478;10.182;2023-08-24T02:56:36;3.67;;;2.20;;
23743;SDS011;12052;53.478;10.182;2023-08-24T02:59:02;6.30;;;3.00;;
23743;SDS011;12052;53.478;10.182;2023-08-24T03:01:28;2.80;;;1.80;;
23743;SDS011;12052;53.478;10.182;2023-08-24T03:03:54;5.68;;;2.33;;
23743;SDS011;12052;53.478;10.182;2023-08-24T03:06:19;5.00;;;2.10;;
23743;SDS011;12052;53.478;10.182;2023-08-24T03:08:45;3.10;;;2.15;;
23743;SDS011;12052;53.478;10.182;2023-08-24T03:11:10;3.33;;;2.65;;
23743;SDS011;12052;53.478;10.182;2023-08-24T03:13:36;4.82;;;1.90;;
23743;SDS011;12052;53.478;10.182;2023-08-24T03:16:04;3.97;;;2.13;;
23743;SDS011;12052;53.478;10.182;2023-08-24T03:18:30;3.40;;;2.13;;
23743;SDS011;12052;53.478;10.182;2023-08-24T03:20:56;4.10;;;2.25;;
23743;SDS011;12052;53.478;10.182;2023-08-24T03:23:21;4.00;;;2.00;;
23743;SDS011;12052;53.478;10.182;2023-08-24T03:25:47;6.50;;;3.00;;
23743;SDS011;12052;53.478;10.182;2023-08-24T03:28:13;9.10;;;2.65;;
23743;SDS011;12052;53.478;10.182;2023-08-24T03:30:39;3.53;;;2.30;;
23743;SDS011;12052;53.478;10.182;2023-08-24T03:33:10;4.78;;;2.33;;
23743;SDS011;12052;53.478;10.182;2023-08-24T03:35:36;6.10;;;2.75;;
23743;SDS011;12052;53.478;10.182;2023-08-24T03:38:01;4.70;;;2.63;;
23743;SDS011;12052;53.478;10.182;2023-08-24T03:40:28;3.88;;;2.42;;
23743;SDS011;12052;53.478;10.182;2023-08-24T03:42:53;3.03;;;1.80;;
23743;SDS011;12052;53.478;10.182;2023-08-24T03:45:19;3.78;;;2.60;;
23743;SDS011;12052;53.478;10.182;2023-08-24T03:47:45;5.53;;;2.28;;
23743;SDS011;12052;53.478;10.182;2023-08-24T03:50:11;6.28;;;2.35;;
23743;SDS011;12052;53.478;10.182;2023-08-24T03:52:36;4.72;;;2.00;;
23743;SDS011;12052;53.478;10.182;2023-08-24T03:55:04;6.75;;;2.15;;
23743;SDS011;12052;53.478;10.182;2023-08-24T03:57:31;6.40;;;2.83;;
23743;SDS011;12052;53.478;10.182;2023-08-24T03:59:56;8.00;;;3.28;;
23743;SDS011;12052;53.478;10.182;2023-08-24T04:02:22;5.28;;;2.60;;
23743;SDS011;12052;53.478;10.182;2023-08-24T04:04:48;5.00;;;2.47;;
23743;SDS011;12052;53.478;10.182;2023-08-24T04:07:14;5.20;;;2.40;;
23743;SDS011;12052;53.478;10.182;2023-08-24T04:09:39;11.00;;;2.60;;
23743;SDS011;12052;53.478;10.182;2023-08-24T04:12:05;4.20;;;2.42;;
23743;SDS011;12052;53.478;10.182;2023-08-24T04:14:31;3.95;;;2.40;;
23743;SDS011;12052;53.478;10.182;2023-08-24T04:16:57;5.47;;;2.97;;
23743;SDS011;12052;53.478;10.182;2023-08-24T04:19:23;10.25;;;3.25;;
23743;SDS011;12052;53.478;10.182;2023-08-24T04:21:48;8.02;;;3.00;;
23743;SDS011;12052;53.478;10.182;2023-08-24T04:24:14;7.25;;;3.17;;
23743;SDS011;12052;53.478;10.182;2023-08-24T04:26:39;4.53;;;2.55;;
23743;SDS011;12052;53.478;10.182;2023-08-24T04:29:05;4.13;;;2.97;;
23743;SDS011;12052;53.478;10.182;2023-08-24T04:31:31;5.82;;;2.53;;
23743;SDS011;12052;53.478;10.182;2023-08-24T04:33:56;4.43;;;2.70;;
23743;SDS011;12052;53.478;10.182;2023-08-24T04:36:22;5.30;;;2.50;;
23743;SDS011;12052;53.478;10.182;2023-08-24T04:38:47;8.23;;;3.40;;
23743;SDS011;12052;53.478;10.182;2023-08-24T04:41:13;6.72;;;2.65;;
23743;SDS011;12052;53.478;10.182;2023-08-24T04:43:38;4.00;;;2.90;;
23743;SDS011;12052;53.478;10.182;2023-08-24T04:46:04;7.03;;;2.50;;
23743;SDS011;12052;53.478;10.182;2023-08-24T04:48:30;7.68;;;3.38;;
23743;SDS011;12052;53.478;10.182;2023-08-24T04:50:58;3.97;;;2.60;;
23743;SDS011;12052;53.478;10.182;2023-08-24T04:53:25;6.72;;;2.80;;
23743;SDS011;12052;53.478;10.182;2023-08-24T04:55:51;5.95;;;2.80;;
23743;SDS011;12052;53.478;10.182;2023-08-24T04:58:17;6.85;;;2.72;;
23743;SDS011;12052;53.478;10.182;2023-08-24T05:00:43;5.88;;;2.50;;
23743;SDS011;12052;53.478;10.182;2023-08-24T05:03:09;6.63;;;2.60;;
23743;SDS011;12052;53.478;10.182;2023-08-24T05:05:35;4.18;;;2.47;;
23743;SDS011;12052;53.478;10.182;2023-08-24T05:08:02;4.32;;;2.63;;
23743;SDS011;12052;53.478;10.182;2023-08-24T05:10:31;5.53;;;2.08;;
23743;SDS011;12052;53.478;10.182;2023-08-24T05:12:57;6.47;;;2.70;;
23743;SDS011;12052;53.478;10.182;2023-08-24T05:15:23;5.40;;;2.75;;
23743;SDS011;12052;53.478;10.182;2023-08-24T05:17:48;3.78;;;2.47;;
23743;SDS011;12052;53.478;10.182;2023-08-24T05:20:16;5.70;;;2.28;;
23743;SDS011;12052;53.478;10.182;2023-08-24T05:22:42;8.80;;;3.05;;
23743;SDS011;12052;53.478;10.182;2023-08-24T05:25:07;6.07;;;3.15;;
23743;SDS011;12052;53.478;10.182;2023-08-24T05:27:33;6.22;;;2.80;;
23743;SDS011;12052;53.478;10.182;2023-08-24T05:29:58;5.95;;;2.65;;
23743;SDS011;12052;53.478;10.182;2023-08-24T05:32:24;5.45;;;2.88;;
23743;SDS011;12052;53.478;10.182;2023-08-24T05:34:50;7.10;;;2.97;;
23743;SDS011;12052;53.478;10.182;2023-08-24T05:37:15;5.40;;;3.35;;
23743;SDS011;12052;53.478;10.182;2023-08-24T05:39:41;5.93;;;3.47;;
23743;SDS011;12052;53.478;10.182;2023-08-24T05:42:08;5.55;;;2.80;;
23743;SDS011;12052;53.478;10.182;2023-08-24T05:44:33;5.57;;;2.92;;
23743;SDS011;12052;53.478;10.182;2023-08-24T05:46:59;4.72;;;3.08;;
23743;SDS011;12052;53.478;10.182;2023-08-24T05:49:25;6.45;;;3.50;;
23743;SDS011;12052;53.478;10.182;2023-08-24T05:51:51;6.80;;;3.17;;
23743;SDS011;12052;53.478;10.182;2023-08-24T05:54:17;6.30;;;3.25;;
23743;SDS011;12052;53.478;10.182;2023-08-24T05:56:44;6.72;;;3.10;;
23743;SDS011;12052;53.478;10.182;2023-08-24T05:59:10;5.05;;;3.33;;
23743;SDS011;12052;53.478;10.182;2023-08-24T06:01:35;5.63;;;2.92;;
23743;SDS011;12052;53.478;10.182;2023-08-24T06:04:05;3.33;;;2.67;;
23743;SDS011;12052;53.478;10.182;2023-08-24T06:06:31;6.32;;;3.22;;
23743;SDS011;12052;53.478;10.182;2023-08-24T06:08:56;8.23;;;2.95;;
23743;SDS011;12052;53.478;10.182;2023-08-24T06:11:22;4.07;;;2.58;;
23743;SDS011;12052;53.478;10.182;2023-08-24T06:13:48;4.80;;;2.80;;
23743;SDS011;12052;53.478;10.182;2023-08-24T06:16:13;6.43;;;2.60;;
23743;SDS011;12052;53.478;10.182;2023-08-24T06:18:39;3.40;;;2.30;;
23743;SDS011;12052;53.478;10.182;2023-08-24T06:21:04;4.72;;;2.45;;
23743;SDS011;12052;53.478;10.182;2023-08-24T06:23:30;3.83;;;2.00;;
23743;SDS011;12052;53.478;10.182;2023-08-24T06:25:55;5.93;;;2.42;;
23743;SDS011;12052;53.478;10.182;2023-08-24T06:28:21;4.00;;;2.35;;
23743;SDS011;12052;53.478;10.182;2023-08-24T06:30:47;5.72;;;2.53;;
23743;SDS011;12052;53.478;10.182;2023-08-24T06:33:13;6.53;;;1.95;;
23743;SDS011;12052;53.478;10.182;2023-08-24T06:35:38;2.58;;;1.73;;
23743;SDS011;12052;53.478;10.182;2023-08-24T06:38:05;3.67;;;1.58;;
23743;SDS011;12052;53.478;10.182;2023-08-24T06:40:31;4.03;;;1.55;;
23743;SDS011;12052;53.478;10.182;2023-08-24T06:42:57;5.22;;;1.70;;
23743;SDS011;12052;53.478;10.182;2023-08-24T06:45:22;1.90;;;1.30;;
23743;SDS011;12052;53.478;10.182;2023-08-24T06:47:48;3.08;;;1.77;;
23743;SDS011;12052;53.478;10.182;2023-08-24T06:50:14;4.15;;;1.77;;
23743;SDS011;12052;53.478;10.182;2023-08-24T06:52:40;3.05;;;1.58;;
23743;SDS011;12052;53.478;10.182;2023-08-24T06:55:08;4.65;;;1.80;;
23743;SDS011;12052;53.478;10.182;2023-08-24T06:57:34;3.38;;;1.50;;
23743;SDS011;12052;53.478;10.182;2023-08-24T06:59:59;4.63;;;1.73;;
23743;SDS011;12052;53.478;10.182;2023-08-24T07:02:25;1.45;;;1.23;;
23743;SDS011;12052;53.478;10.182;2023-08-24T07:04:50;3.05;;;1.50;;
23743;SDS011;12052;53.478;10.182;2023-08-24T07:07:16;2.97;;;1.30;;
23743;SDS011;12052;53.478;10.182;2023-08-24T07:09:42;3.70;;;1.25;;
23743;SDS011;12052;53.478;10.182;2023-08-24T07:12:08;6.20;;;1.67;;
23743;SDS011;12052;53.478;10.182;2023-08-24T07:14:35;1.70;;;1.42;;
23743;SDS011;12052;53.478;10.182;2023-08-24T07:17:01;4.60;;;1.50;;
23743;SDS011;12052;53.478;10.182;2023-08-24T07:19:26;3.15;;;1.58;;
23743;SDS011;12052;53.478;10.182;2023-08-24T07:21:52;4.25;;;1.63;;
23743;SDS011;12052;53.478;10.182;2023-08-24T07:24:18;4.80;;;1.65;;
23743;SDS011;12052;53.478;10.182;2023-08-24T07:26:51;6.57;;;1.88;;
23743;SDS011;12052;53.478;10.182;2023-08-24T07:29:17;3.95;;;1.63;;
23743;SDS011;12052;53.478;10.182;2023-08-24T07:31:44;2.70;;;1.30;;
23743;SDS011;12052;53.478;10.182;2023-08-24T07:34:09;4.05;;;1.65;;
23743;SDS011;12052;53.478;10.182;2023-08-24T07:36:35;3.65;;;1.85;;
23743;SDS011;12052;53.478;10.182;2023-08-24T07:39:00;2.90;;;1.38;;
23743;SDS011;12052;53.478;10.182;2023-08-24T07:41:26;4.38;;;1.83;;
23743;SDS011;12052;53.478;10.182;2023-08-24T07:43:52;3.20;;;1.25;;
23743;SDS011;12052;53.478;10.182;2023-08-24T07:46:17;4.32;;;1.25;;
23743;SDS011;12052;53.478;10.182;2023-08-24T07:48:43;1.75;;;1.35;;
23743;SDS011;12052;53.478;10.182;2023-08-24T07:51:08;4.32;;;1.70;;
23743;SDS011;12052;53.478;10.182;2023-08-24T07:53:34;2.47;;;1.50;;
23743;SDS011;12052;53.478;10.182;2023-08-24T07:56:00;2.15;;;1.35;;
23743;SDS011;12052;53.478;10.182;2023-08-24T07:58:26;1.98;;;1.50;;
23743;SDS011;12052;53.478;10.182;2023-08-24T08:00:52;4.55;;;1.50;;
23743;SDS011;12052;53.478;10.182;2023-08-24T08:03:22;2.10;;;1.20;;
23743;SDS011;12052;53.478;10.182;2023-08-24T08:05:47;4.10;;;1.20;;
23743;SDS011;12052;53.478;10.182;2023-08-24T08:08:13;2.67;;;1.30;;
23743;SDS011;12052;53.478;10.182;2023-08-24T08:10:40;3.30;;;1.25;;
23743;SDS011;12052;53.478;10.182;2023-08-24T08:13:06;2.17;;;1.25;;
23743;SDS011;12052;53.478;10.182;2023-08-24T08:15:32;3.58;;;1.40;;
23743;SDS011;12052;53.478;10.182;2023-08-24T08:17:58;2.72;;;1.23;;
23743;SDS011;12052;53.478;10.182;2023-08-24T08:20:24;1.90;;;1.48;;
23743;SDS011;12052;53.478;10.182;2023-08-24T08:22:49;7.60;;;1.73;;
23743;SDS011;12052;53.478;10.182;2023-08-24T08:25:15;5.13;;;1.98;;
23743;SDS011;12052;53.478;10.182;2023-08-24T08:27:43;5.28;;;2.33;;
23743;SDS011;12052;53.478;10.182;2023-08-24T08:30:09;4.00;;;1.65;;
23743;SDS011;12052;53.478;10.182;2023-08-24T08:32:35;4.82;;;1.65;;
23743;SDS011;12052;53.478;10.182;2023-08-24T08:35:00;2.35;;;1.67;;
23743;SDS011;12052;53.478;10.182;2023-08-24T08:37:27;4.90;;;1.73;;
23743;SDS011;12052;53.478;10.182;2023-08-24T08:39:52;7.75;;;2.17;;
23743;SDS011;12052;53.478;10.182;2023-08-24T08:42:18;4.32;;;1.63;;
23743;SDS011;12052;53.478;10.182;2023-08-24T08:44:45;5.07;;;1.60;;
23743;SDS011;12052;53.478;10.182;2023-08-24T08:47:11;6.38;;;1.58;;
23743;SDS011;12052;53.478;10.182;2023-08-24T08:49:39;3.42;;;1.33;;
23743;SDS011;12052;53.478;10.182;2023-08-24T08:52:05;1.77;;;1.20;;
23743;SDS011;12052;53.478;10.182;2023-08-24T08:54:31;2.28;;;1.45;;
23743;SDS011;12052;53.478;10.182;2023-08-24T08:56:58;2.35;;;1.35;;
23743;SDS011;12052;53.478;10.182;2023-08-24T08:59:24;4.05;;;1.40;;
23743;SDS011;12052;53.478;10.182;2023-08-24T09:01:55;2.75;;;1.38;;
23743;SDS011;12052;53.478;10.182;2023-08-24T09:04:31;2.38;;;1.20;;
23743;SDS011;12052;53.478;10.182;2023-08-24T09:06:58;1.38;;;1.10;;
23743;SDS011;12052;53.478;10.182;2023-08-24T09:09:32;1.70;;;1.33;;
23743;SDS011;12052;53.478;10.182;2023-08-24T09:11:58;2.38;;;1.13;;
23743;SDS011;12052;53.478;10.182;2023-08-24T09:14:24;3.95;;;1.50;;
23743;SDS011;12052;53.478;10.182;2023-08-24T09:16:50;4.50;;;1.50;;
23743;SDS011;12052;53.478;10.182;2023-08-24T09:19:15;2.65;;;1.20;;
23743;SDS011;12052;53.478;10.182;2023-08-24T09:21:41;2.58;;;1.38;;
23743;SDS011;12052;53.478;10.182;2023-08-24T09:24:07;3.95;;;1.13;;
23743;SDS011;12052;53.478;10.182;2023-08-24T09:26:34;2.88;;;1.10;;
23743;SDS011;12052;53.478;10.182;2023-08-24T09:29:11;3.65;;;1.27;;
23743;SDS011;12052;53.478;10.182;2023-08-24T09:31:38;1.48;;;1.27;;
23743;SDS011;12052;53.478;10.182;2023-08-24T09:34:05;3.15;;;1.50;;
23743;SDS011;12052;53.478;10.182;2023-08-24T09:36:31;2.75;;;1.65;;
23743;SDS011;12052;53.478;10.182;2023-08-24T09:39:01;2.20;;;1.38;;
23743;SDS011;12052;53.478;10.182;2023-08-24T09:41:41;1.67;;;1.40;;
23743;SDS011;12052;53.478;10.182;2023-08-24T09:44:13;4.53;;;1.95;;
23743;SDS011;12052;53.478;10.182;2023-08-24T09:46:39;5.30;;;1.80;;
23743;SDS011;12052;53.478;10.182;2023-08-24T09:49:06;3.55;;;1.48;;
23743;SDS011;12052;53.478;10.182;2023-08-24T09:51:34;4.95;;;1.40;;
23743;SDS011;12052;53.478;10.182;2023-08-24T09:54:01;2.78;;;1.45;;
23743;SDS011;12052;53.478;10.182;2023-08-24T09:56:34;3.20;;;1.52;;
23743;SDS011;12052;53.478;10.182;2023-08-24T09:59:10;3.50;;;1.20;;
23743;SDS011;12052;53.478;10.182;2023-08-24T10:01:38;3.47;;;1.25;;
23743;SDS011;12052;53.478;10.182;2023-08-24T10:04:08;2.85;;;1.75;;
23743;SDS011;12052;53.478;10.182;2023-08-24T10:06:36;4.20;;;1.90;;
23743;SDS011;12052;53.478;10.182;2023-08-24T10:09:02;3.80;;;1.60;;
23743;SDS011;12052;53.478;10.182;2023-08-24T10:11:33;3.30;;;1.58;;
23743;SDS011;12052;53.478;10.182;2023-08-24T10:16:32;3.65;;;1.50;;
23743;SDS011;12052;53.478;10.182;2023-08-24T10:19:00;5.32;;;2.15;;
23743;SDS011;12052;53.478;10.182;2023-08-24T10:21:28;3.72;;;1.90;;
23743;SDS011;12052;53.478;10.182;2023-08-24T10:23:54;2.35;;;1.30;;
23743;SDS011;12052;53.478;10.182;2023-08-24T10:26:22;5.93;;;1.92;;
23743;SDS011;12052;53.478;10.182;2023-08-24T10:28:49;3.60;;;1.65;;
23743;SDS011;12052;53.478;10.182;2023-08-24T10:31:15;1.92;;;1.48;;
23743;SDS011;12052;53.478;10.182;2023-08-24T10:33:41;3.90;;;2.10;;
23743;SDS011;12052;53.478;10.182;2023-08-24T10:36:09;3.35;;;1.55;;
23743;SDS011;12052;53.478;10.182;2023-08-24T10:38:35;5.30;;;1.98;;
23743;SDS011;12052;53.478;10.182;2023-08-24T10:41:07;6.57;;;2.40;;
23743;SDS011;12052;53.478;10.182;2023-08-24T10:43:48;3.33;;;1.80;;
23743;SDS011;12052;53.478;10.182;2023-08-24T10:46:15;6.35;;;2.05;;
23743;SDS011;12052;53.478;10.182;2023-08-24T10:53:56;5.20;;;2.17;;
23743;SDS011;12052;53.478;10.182;2023-08-24T10:56:34;4.45;;;2.38;;
23743;SDS011;12052;53.478;10.182;2023-08-24T10:59:09;7.03;;;1.90;;
23743;SDS011;12052;53.478;10.182;2023-08-24T11:01:43;5.95;;;1.88;;
23743;SDS011;12052;53.478;10.182;2023-08-24T11:04:20;4.00;;;1.92;;
23743;SDS011;12052;53.478;10.182;2023-08-24T11:11:55;9.10;;;2.65;;
23743;SDS011;12052;53.478;10.182;2023-08-24T11:14:24;6.75;;;2.20;;
23743;SDS011;12052;53.478;10.182;2023-08-24T11:16:51;4.53;;;2.22;;
23743;SDS011;12052;53.478;10.182;2023-08-24T11:19:18;3.67;;;2.13;;
23743;SDS011;12052;53.478;10.182;2023-08-24T11:21:44;3.28;;;1.90;;
23743;SDS011;12052;53.478;10.182;2023-08-24T11:24:11;2.67;;;1.67;;
23743;SDS011;12052;53.478;10.182;2023-08-24T11:26:48;3.65;;;2.03;;
23743;SDS011;12052;53.478;10.182;2023-08-24T11:29:14;4.25;;;1.73;;
23743;SDS011;12052;53.478;10.182;2023-08-24T11:31:40;3.63;;;1.88;;
23743;SDS011;12052;53.478;10.182;2023-08-24T11:34:10;2.35;;;1.77;;
23743;SDS011;12052;53.478;10.182;2023-08-24T11:36:46;2.83;;;1.80;;
23743;SDS011;12052;53.478;10.182;2023-08-24T11:41:42;10.02;;;1.92;;
23743;SDS011;12052;53.478;10.182;2023-08-24T11:44:09;3.08;;;1.80;;
23743;SDS011;12052;53.478;10.182;2023-08-24T11:46:35;4.03;;;1.55;;
23743;SDS011;12052;53.478;10.182;2023-08-24T11:49:04;3.90;;;1.92;;
23743;SDS011;12052;53.478;10.182;2023-08-24T11:51:31;2.17;;;1.40;;
23743;SDS011;12052;53.478;10.182;2023-08-24T11:53:59;6.72;;;2.03;;
23743;SDS011;12052;53.478;10.182;2023-08-24T11:56:24;7.10;;;1.63;;
23743;SDS011;12052;53.478;10.182;2023-08-24T11:58:50;1.98;;;1.52;;
23743;SDS011;12052;53.478;10.182;2023-08-24T12:01:16;4.00;;;1.50;;
23743;SDS011;12052;53.478;10.182;2023-08-24T12:03:42;4.85;;;1.88;;
23743;SDS011;12052;53.478;10.182;2023-08-24T12:06:17;4.57;;;1.70;;
23743;SDS011;12052;53.478;10.182;2023-08-24T12:08:44;2.42;;;1.52;;
23743;SDS011;12052;53.478;10.182;2023-08-24T12:11:16;3.42;;;1.35;;
23743;SDS011;12052;53.478;10.182;2023-08-24T12:13:43;2.55;;;1.70;;
23743;SDS011;12052;53.478;10.182;2023-08-24T12:16:10;3.13;;;1.60;;
23743;SDS011;12052;53.478;10.182;2023-08-24T12:18:45;4.43;;;1.80;;
23743;SDS011;12052;53.478;10.182;2023-08-24T12:21:16;4.15;;;1.52;;
23743;SDS011;12052;53.478;10.182;2023-08-24T12:23:42;2.78;;;1.60;;
23743;SDS011;12052;53.478;10.182;2023-08-24T12:26:07;3.22;;;1.58;;
23743;SDS011;12052;53.478;10.182;2023-08-24T12:28:33;2.00;;;1.30;;
23743;SDS011;12052;53.478;10.182;2023-08-24T12:30:59;2.30;;;1.75;;
23743;SDS011;12052;53.478;10.182;2023-08-24T12:33:28;4.75;;;1.77;;
23743;SDS011;12052;53.478;10.182;2023-08-24T12:35:55;3.97;;;1.67;;
23743;SDS011;12052;53.478;10.182;2023-08-24T12:38:21;3.50;;;1.80;;
23743;SDS011;12052;53.478;10.182;2023-08-24T12:40:47;3.63;;;1.50;;
23743;SDS011;12052;53.478;10.182;2023-08-24T12:43:13;5.03;;;1.88;;
23743;SDS011;12052;53.478;10.182;2023-08-24T12:45:42;4.80;;;2.05;;
23743;SDS011;12052;53.478;10.182;2023-08-24T12:48:08;3.03;;;1.63;;
23743;SDS011;12052;53.478;10.182;2023-08-24T12:50:35;5.15;;;2.38;;
23743;SDS011;12052;53.478;10.182;2023-08-24T12:53:03;4.05;;;1.63;;
23743;SDS011;12052;53.478;10.182;2023-08-24T12:55:31;5.78;;;1.80;;
23743;SDS011;12052;53.478;10.182;2023-08-24T12:57:57;3.55;;;1.77;;
23743;SDS011;12052;53.478;10.182;2023-08-24T13:00:22;2.90;;;1.80;;
23743;SDS011;12052;53.478;10.182;2023-08-24T13:02:48;2.88;;;1.50;;
23743;SDS011;12052;53.478;10.182;2023-08-24T13:05:14;2.10;;;1.38;;
23743;SDS011;12052;53.478;10.182;2023-08-24T13:07:40;3.75;;;2.08;;
23743;SDS011;12052;53.478;10.182;2023-08-24T13:10:06;2.92;;;1.77;;
23743;SDS011;12052;53.478;10.182;2023-08-24T13:12:32;4.18;;;2.00;;
23743;SDS011;12052;53.478;10.182;2023-08-24T13:14:59;6.50;;;1.88;;
23743;SDS011;12052;53.478;10.182;2023-08-24T13:17:25;2.88;;;1.58;;
23743;SDS011;12052;53.478;10.182;2023-08-24T13:19:50;3.33;;;1.50;;
23743;SDS011;12052;53.478;10.182;2023-08-24T13:22:16;5.25;;;1.75;;
23743;SDS011;12052;53.478;10.182;2023-08-24T13:24:41;2.58;;;1.42;;
23743;SDS011;12052;53.478;10.182;2023-08-24T13:27:09;3.60;;;1.77;;
23743;SDS011;12052;53.478;10.182;2023-08-24T13:29:39;4.18;;;1.50;;
23743;SDS011;12052;53.478;10.182;2023-08-24T13:32:05;2.42;;;1.50;;
23743;SDS011;12052;53.478;10.182;2023-08-24T13:34:31;2.75;;;1.60;;
23743;SDS011;12052;53.478;10.182;2023-08-24T13:36:57;4.85;;;1.80;;
23743;SDS011;12052;53.478;10.182;2023-08-24T13:39:27;2.65;;;1.55;;
23743;SDS011;12052;53.478;10.182;2023-08-24T13:41:53;9.70;;;1.73;;
23743;SDS011;12052;53.478;10.182;2023-08-24T13:44:19;1.70;;;1.23;;
23743;SDS011;12052;53.478;10.182;2023-08-24T13:46:45;5.25;;;1.75;;
23743;SDS011;12052;53.478;10.182;2023-08-24T13:49:11;2.08;;;1.40;;
23743;SDS011;12052;53.478;10.182;2023-08-24T13:51:37;3.25;;;1.55;;
23743;SDS011;12052;53.478;10.182;2023-08-24T13:54:02;3.58;;;1.40;;
23743;SDS011;12052;53.478;10.182;2023-08-24T13:56:36;6.50;;;1.85;;
23743;SDS011;12052;53.478;10.182;2023-08-24T13:59:03;5.30;;;1.95;;
23743;SDS011;12052;53.478;10.182;2023-08-24T14:01:28;3.55;;;1.85;;
23743;SDS011;12052;53.478;10.182;2023-08-24T14:03:54;1.92;;;1.52;;
23743;SDS011;12052;53.478;10.182;2023-08-24T14:06:20;2.53;;;1.42;;
23743;SDS011;12052;53.478;10.182;2023-08-24T14:08:45;1.77;;;1.45;;
23743;SDS011;12052;53.478;10.182;2023-08-24T14:11:11;3.88;;;1.50;;
23743;SDS011;12052;53.478;10.182;2023-08-24T14:13:37;3.95;;;1.80;;
23743;SDS011;12052;53.478;10.182;2023-08-24T14:16:02;1.77;;;1.30;;
23743;SDS011;12052;53.478;10.182;2023-08-24T14:18:29;5.43;;;1.73;;
23743;SDS011;12052;53.478;10.182;2023-08-24T14:20:55;3.67;;;1.80;;
23743;SDS011;12052;53.478;10.182;2023-08-24T14:23:21;2.42;;;1.48;;
23743;SDS011;12052;53.478;10.182;2023-08-24T14:25:46;2.90;;;1.80;;
23743;SDS011;12052;53.478;10.182;2023-08-24T14:28:13;3.60;;;1.95;;
23743;SDS011;12052;53.478;10.182;2023-08-24T14:30:39;4.50;;;1.70;;
23743;SDS011;12052;53.478;10.182;2023-08-24T14:33:05;2.08;;;1.50;;
23743;SDS011;12052;53.478;10.182;2023-08-24T14:35:30;3.95;;;1.73;;
23743;SDS011;12052;53.478;10.182;2023-08-24T14:37:57;5.60;;;1.70;;
23743;SDS011;12052;53.478;10.182;2023-08-24T14:40:22;2.70;;;1.60;;
23743;SDS011;12052;53.478;10.182;2023-08-24T14:42:48;3.03;;;1.90;;
23743;SDS011;12052;53.478;10.182;2023-08-24T14:45:14;3.47;;;1.40;;
23743;SDS011;12052;53.478;10.182;2023-08-24T14:47:41;4.35;;;2.13;;
23743;SDS011;12052;53.478;10.182;2023-08-24T14:50:06;3.30;;;2.00;;
23743;SDS011;12052;53.478;10.182;2023-08-24T14:52:32;4.13;;;1.90;;